createdAt,value
2019-05-21T00:01:46.582Z,731.57
2019-05-21T00:04:27.844Z,777.47
2019-05-21T00:06:48.982Z,652.60
2019-05-21T00:09:19.639Z,682.73
2019-05-21T00:11:49.964Z,587.37
2019-05-21T00:14:20.310Z,519.83
2019-05-21T00:16:51.023Z,417.03
2019-05-21T00:19:21.615Z,334.07
2019-05-21T00:21:51.926Z,290.80
2019-05-21T00:24:22.720Z,319.30
2019-05-21T00:26:53.414Z,272.93
2019-05-21T00:29:59.562Z,303.93
2019-05-21T00:33:05.783Z,376.10
2019-05-21T00:36:12.030Z,294.47
2019-05-21T00:39:19.992Z,287.33
2019-05-21T00:42:02.632Z,450.73
2019-05-21T00:44:39.684Z,551.27
2019-05-21T00:47:11.725Z,573.97
2019-05-21T00:49:42.442Z,475.90
2019-05-21T00:52:12.774Z,527.10
2019-05-21T00:54:43.383Z,516.30
2019-05-21T00:57:13.764Z,877.63
2019-05-21T00:59:44.060Z,418.00
2019-05-21T01:02:14.503Z,189.03
2019-05-21T01:04:59.556Z,327.03
2019-05-21T01:07:17.279Z,391.53
2019-05-21T01:09:47.985Z,493.17
2019-05-21T01:12:18.432Z,485.27
2019-05-21T01:14:49.052Z,640.70
2019-05-21T01:17:19.789Z,611.63
2019-05-21T01:19:50.189Z,692.93
2019-05-21T01:22:20.782Z,778.27
2019-05-21T01:24:51.460Z,813.47
2019-05-21T01:27:22.865Z,631.50
2019-05-21T01:29:53.180Z,646.17
2019-05-21T01:32:23.918Z,641.80
2019-05-21T01:34:54.214Z,586.33
2019-05-21T01:37:24.558Z,538.20
2019-05-21T01:39:55.228Z,495.33
2019-05-21T01:42:25.706Z,408.17
2019-05-21T01:44:56.198Z,95.53
2019-05-21T01:47:26.559Z,81.37
2019-05-21T01:49:56.885Z,41.60
2019-05-21T01:52:27.588Z,62.57
2019-05-21T01:54:57.995Z,79.83
2019-05-21T01:57:28.280Z,68.67
2019-05-21T01:59:59.002Z,162.37
2019-05-21T02:02:29.577Z,66.53
2019-05-21T02:04:59.870Z,150.80
2019-05-21T02:07:30.619Z,80.27
2019-05-21T02:10:01.547Z,142.97
2019-05-21T02:12:32.050Z,152.90
2019-05-21T02:15:02.383Z,111.87
2019-05-21T02:17:32.720Z,186.57
2019-05-21T02:20:03.518Z,280.60
2019-05-21T02:22:34.098Z,127.87
2019-05-21T02:25:04.971Z,170.50
2019-05-21T02:27:35.682Z,66.53
2019-05-21T02:30:09.491Z,56.73
2019-05-21T02:32:39.876Z,112.77
2019-05-21T02:35:11.152Z,187.93
2019-05-21T02:37:41.748Z,144.93
2019-05-21T02:40:12.948Z,163.17
2019-05-21T02:42:43.393Z,390.77
2019-05-21T02:45:14.177Z,359.77
2019-05-21T02:47:44.892Z,169.53
2019-05-21T02:50:15.942Z,189.20
2019-05-21T02:52:46.267Z,169.33
2019-05-21T02:55:17.211Z,276.03
2019-05-21T02:57:48.718Z,144.57
2019-05-21T03:00:50.484Z,113.53
2019-05-21T03:03:23.976Z,163.83
2019-05-21T03:06:12.306Z,186.93
2019-05-21T03:08:26.703Z,290.57
2019-05-21T03:10:57.028Z,375.17
2019-05-21T03:13:27.860Z,360.53
2019-05-21T03:15:58.160Z,249.57
2019-05-21T03:18:28.495Z,282.70
2019-05-21T03:20:59.115Z,425.73
2019-05-21T03:23:29.588Z,572.60
2019-05-21T03:25:59.927Z,555.37
2019-05-21T03:28:30.298Z,591.60
2019-05-21T03:31:00.773Z,670.83
2019-05-21T03:33:31.045Z,669.57
2019-05-21T03:36:01.902Z,765.63
2019-05-21T03:38:32.638Z,741.27
2019-05-21T03:41:02.938Z,559.20
2019-05-21T03:43:33.382Z,559.57
2019-05-21T03:46:04.182Z,405.30
2019-05-21T03:48:34.537Z,469.87
2019-05-21T03:51:05.453Z,716.53
2019-05-21T03:53:35.785Z,736.97
2019-05-21T03:56:06.666Z,782.70
2019-05-21T03:58:37.123Z,837.70
2019-05-21T04:01:07.411Z,857.67
2019-05-21T04:03:38.022Z,839.83
2019-05-21T04:06:08.776Z,932.53
2019-05-21T04:08:39.118Z,972.93
2019-05-21T04:11:09.448Z,977.53
2019-05-21T04:13:40.218Z,1016.90
2019-05-21T04:16:38.217Z,932.77
2019-05-21T04:19:12.219Z,975.33
2019-05-21T04:21:43.025Z,997.83
2019-05-21T04:24:13.396Z,989.77
2019-05-21T04:26:43.818Z,949.97
2019-05-21T04:29:14.123Z,957.27
2019-05-21T04:31:44.584Z,701.83
2019-05-21T04:34:15.261Z,496.07
2019-05-21T04:36:45.616Z,483.53
2019-05-21T04:39:16.019Z,491.97
2019-05-21T04:41:46.727Z,911.97
2019-05-21T04:44:17.310Z,802.63
2019-05-21T04:46:47.834Z,924.93
2019-05-21T04:49:18.533Z,859.57
2019-05-21T04:51:49.286Z,1054.17
2019-05-21T04:54:19.672Z,1080.17
2019-05-21T04:56:50.031Z,1084.50
2019-05-21T04:59:20.332Z,937.43
2019-05-21T05:01:51.003Z,986.20
2019-05-21T05:04:22.308Z,742.03
2019-05-21T05:06:53.000Z,564.77
2019-05-21T05:09:23.675Z,571.93
2019-05-21T05:11:54.238Z,671.53
2019-05-21T05:14:24.539Z,706.80
2019-05-21T05:16:55.366Z,694.53
2019-05-21T05:19:26.079Z,707.00
2019-05-21T05:21:56.423Z,711.80
2019-05-21T05:24:26.829Z,538.70
2019-05-21T05:26:57.152Z,657.53
2019-05-21T05:29:27.913Z,588.33
2019-05-21T05:31:58.592Z,508.90
2019-05-21T05:34:28.929Z,430.20
2019-05-21T05:36:59.669Z,425.00
2019-05-21T05:39:30.187Z,373.03
2019-05-21T05:42:00.537Z,348.13
2019-05-21T05:44:31.153Z,300.50
2019-05-21T05:47:01.791Z,299.33
2019-05-21T05:49:37.324Z,334.43
2019-05-21T05:52:07.703Z,358.97
2019-05-21T05:54:39.064Z,484.63
2019-05-21T05:57:09.412Z,609.60
2019-05-21T05:59:40.264Z,604.63
2019-05-21T06:02:10.676Z,562.00
2019-05-21T06:04:41.110Z,755.80
2019-05-21T06:07:11.803Z,778.67
2019-05-21T06:09:42.153Z,824.60
2019-05-21T06:12:12.732Z,804.60
2019-05-21T06:14:43.398Z,896.90
2019-05-21T06:17:13.862Z,957.27
2019-05-21T06:19:44.174Z,959.33
2019-05-21T06:22:14.771Z,842.33
2019-05-21T06:24:45.415Z,712.77
2019-05-21T06:27:15.854Z,636.00
2019-05-21T06:29:46.544Z,444.73
2019-05-21T06:32:16.884Z,335.57
2019-05-21T06:34:48.768Z,379.27
2019-05-21T06:37:19.274Z,102.63
2019-05-21T06:39:49.579Z,133.70
2019-05-21T06:42:20.279Z,124.77
2019-05-21T06:44:50.842Z,126.07
2019-05-21T06:47:21.199Z,444.83
2019-05-21T06:49:51.828Z,606.97
2019-05-21T06:52:22.278Z,725.57
2019-05-21T06:54:52.581Z,752.80
2019-05-21T06:57:23.162Z,735.53
2019-05-21T06:59:53.878Z,641.67
2019-05-21T07:02:24.256Z,679.60
2019-05-21T07:04:54.774Z,671.07
2019-05-21T07:07:25.303Z,608.37
2019-05-21T07:09:56.069Z,636.57
2019-05-21T07:12:28.441Z,545.23
2019-05-21T07:14:58.791Z,563.93
2019-05-21T07:17:29.348Z,583.90
2019-05-21T07:20:00.136Z,505.57
2019-05-21T07:22:30.492Z,529.63
2019-05-21T07:25:01.283Z,372.70
2019-05-21T07:27:33.097Z,349.13
2019-05-21T07:30:03.419Z,345.27
2019-05-21T07:32:34.898Z,318.87
2019-05-21T07:35:06.178Z,459.57
2019-05-21T07:37:36.532Z,238.37
2019-05-21T07:40:07.790Z,290.63
2019-05-21T07:42:38.447Z,253.53
2019-05-21T07:45:09.689Z,199.30
2019-05-21T07:47:40.087Z,341.07
2019-05-21T07:50:10.791Z,136.37
2019-05-21T07:52:41.168Z,99.50
2019-05-21T07:55:11.807Z,211.17
2019-05-21T07:57:42.418Z,478.77
2019-05-21T08:00:13.410Z,469.97
2019-05-21T08:02:43.703Z,553.60
2019-05-21T08:05:14.359Z,515.83
2019-05-21T08:07:44.665Z,488.10
2019-05-21T08:10:15.606Z,516.57
2019-05-21T08:12:46.316Z,566.17
2019-05-21T08:15:16.830Z,436.13
2019-05-21T08:17:47.574Z,453.43
2019-05-21T08:20:18.572Z,504.97
2019-05-21T08:22:48.875Z,430.93
2019-05-21T08:25:19.256Z,495.20
2019-05-21T08:27:49.781Z,458.60
2019-05-21T08:30:20.433Z,534.60
2019-05-21T08:32:50.809Z,490.40
2019-05-21T08:35:21.622Z,539.23
2019-05-21T08:37:51.924Z,537.70
2019-05-21T08:40:22.655Z,629.93
2019-05-21T08:42:52.964Z,698.50
2019-05-21T08:45:23.748Z,544.27
2019-05-21T08:47:54.456Z,581.13
2019-05-21T08:50:24.786Z,476.30
2019-05-21T08:52:55.082Z,496.43
2019-05-21T08:55:25.525Z,519.47
2019-05-21T09:00:28.303Z,559.87
2019-05-21T09:02:59.302Z,617.63
2019-05-21T09:03:13.779Z,577.27
2019-05-21T09:05:29.819Z,568.10
2019-05-21T09:08:00.216Z,569.73
2019-05-21T09:10:30.956Z,574.73
2019-05-21T09:13:01.266Z,564.73
2019-05-21T09:15:31.971Z,619.73
2019-05-21T09:18:02.309Z,581.43
2019-05-21T09:20:32.964Z,616.93
2019-05-21T09:23:03.490Z,594.33
2019-05-21T09:25:34.204Z,603.57
2019-05-21T09:28:04.564Z,638.40
2019-05-21T09:30:35.345Z,581.40
2019-05-21T09:33:05.973Z,625.00
2019-05-21T09:35:36.347Z,640.50
2019-05-21T09:38:06.890Z,636.70
2019-05-21T09:40:37.837Z,661.20
2019-05-21T09:43:08.326Z,632.77
2019-05-21T09:45:39.104Z,825.87
2019-05-21T09:48:09.597Z,479.37
2019-05-21T09:50:40.252Z,550.50
2019-05-21T09:53:10.646Z,438.20
2019-05-21T09:55:41.008Z,518.90
2019-05-21T09:58:28.869Z,413.07
2019-05-21T10:01:18.500Z,529.83
2019-05-21T10:03:52.354Z,352.53
2019-05-21T10:06:22.922Z,363.57
2019-05-21T10:08:53.544Z,270.73
2019-05-21T10:11:23.900Z,300.50
2019-05-21T10:13:54.311Z,305.83
2019-05-21T10:16:24.874Z,414.70
2019-05-21T10:18:55.605Z,335.30
2019-05-21T10:21:26.209Z,480.60
2019-05-21T10:23:56.495Z,843.00
2019-05-21T10:26:27.085Z,459.77
2019-05-21T10:28:57.891Z,390.70
2019-05-21T10:31:28.173Z,398.67
2019-05-21T10:33:58.551Z,388.80
2019-05-21T10:36:28.988Z,655.23
2019-05-21T10:38:59.297Z,455.30
2019-05-21T10:41:29.636Z,375.07
2019-05-21T10:44:00.263Z,366.07
2019-05-21T10:46:30.783Z,334.53
2019-05-21T10:49:01.585Z,413.47
2019-05-21T10:51:31.870Z,393.80
2019-05-21T10:54:02.338Z,538.67
2019-05-21T10:56:46.786Z,502.13
2019-05-21T10:59:05.289Z,413.93
2019-05-21T11:01:57.679Z,393.87
2019-05-21T11:04:47.310Z,366.20
2019-05-21T11:07:19.214Z,1014.23
2019-05-21T11:09:49.574Z,293.43
2019-05-21T11:12:20.308Z,227.37
2019-05-21T11:14:50.997Z,302.93
2019-05-21T11:17:21.568Z,264.73
2019-05-21T11:19:52.007Z,772.97
2019-05-21T11:22:22.387Z,143.63
2019-05-21T11:24:52.948Z,226.20
2019-05-21T11:27:23.874Z,232.10
2019-05-21T11:29:54.213Z,288.73
2019-05-21T11:32:25.017Z,346.03
2019-05-21T11:34:55.998Z,357.57
2019-05-21T11:37:26.318Z,380.77
2019-05-21T11:39:57.145Z,653.57
2019-05-21T11:42:27.739Z,721.43
2019-05-21T11:44:58.085Z,654.53
2019-05-21T11:47:28.594Z,663.30
2019-05-21T11:49:59.162Z,380.47
2019-05-21T11:52:29.460Z,831.20
2019-05-21T11:54:59.877Z,354.93
2019-05-21T11:57:30.261Z,545.80
2019-05-21T12:00:00.602Z,336.67
2019-05-21T12:02:30.912Z,349.80
2019-05-21T12:05:01.656Z,355.23
2019-05-21T12:07:32.035Z,514.70
2019-05-21T12:10:02.376Z,382.53
2019-05-21T12:12:33.073Z,359.17
2019-05-21T12:15:03.893Z,460.87
2019-05-21T12:17:34.182Z,263.33
2019-05-21T12:20:05.467Z,395.00
2019-05-21T12:22:35.874Z,277.67
2019-05-21T12:25:06.900Z,214.40
2019-05-21T12:27:37.283Z,207.17
2019-05-21T12:30:08.337Z,244.43
2019-05-21T12:32:40.250Z,248.63
2019-05-21T12:35:11.359Z,243.00
2019-05-21T12:37:41.763Z,221.17
2019-05-21T12:40:13.316Z,220.77
2019-05-21T12:42:44.079Z,258.90
2019-05-21T12:45:14.689Z,219.60
2019-05-21T12:47:45.071Z,204.10
2019-05-21T12:50:16.040Z,235.43
2019-05-21T12:52:46.327Z,263.73
2019-05-21T12:55:16.976Z,212.93
2019-05-21T12:57:47.507Z,246.43
2019-05-21T13:00:19.436Z,243.07
2019-05-21T13:02:50.010Z,208.17
2019-05-21T13:05:20.352Z,164.13
2019-05-21T13:07:51.922Z,185.80
2019-05-21T13:10:22.759Z,172.30
2019-05-21T13:12:53.077Z,194.93
2019-05-21T13:15:23.495Z,232.67
2019-05-21T13:17:54.076Z,629.53
2019-05-21T13:20:24.521Z,365.07
2019-05-21T13:22:54.901Z,308.27
2019-05-21T13:25:25.953Z,289.03
2019-05-21T13:27:57.690Z,302.50
2019-05-21T13:30:28.833Z,276.70
2019-05-21T13:32:59.079Z,267.90
2019-05-21T13:35:29.570Z,251.97
2019-05-21T13:38:00.472Z,230.43
2019-05-21T13:40:32.550Z,271.60
2019-05-21T13:43:02.946Z,239.50
2019-05-21T13:45:34.507Z,208.17
2019-05-21T13:48:05.055Z,194.33
2019-05-21T13:50:35.338Z,196.07
2019-05-21T13:53:06.189Z,221.07
2019-05-21T13:55:36.840Z,216.47
2019-05-21T13:58:07.377Z,216.93
2019-05-21T14:00:42.434Z,207.47
2019-05-21T14:03:13.285Z,398.53
2019-05-21T14:05:44.160Z,364.93
2019-05-21T14:08:14.752Z,280.63
2019-05-21T14:10:45.159Z,408.40
2019-05-21T14:13:15.882Z,231.00
2019-05-21T14:15:47.252Z,215.10
2019-05-21T14:18:17.588Z,232.73
2019-05-21T14:20:47.989Z,169.10
2019-05-21T14:23:18.782Z,189.83
2019-05-21T14:25:49.082Z,194.77
2019-05-21T14:28:20.000Z,194.77
2019-05-21T14:30:50.800Z,172.83
2019-05-21T14:33:21.183Z,157.60
2019-05-21T14:35:51.732Z,211.07
2019-05-21T14:38:22.036Z,194.63
2019-05-21T14:40:52.835Z,130.10
2019-05-21T14:43:23.572Z,126.23
2019-05-21T14:45:53.962Z,266.33
2019-05-21T14:48:24.445Z,186.20
2019-05-21T14:50:54.863Z,152.62
2019-05-21T14:53:25.158Z,127.10
2019-05-21T14:55:55.485Z,126.62
2019-05-21T14:58:26.131Z,96.72
2019-05-21T15:00:56.477Z,93.70
2019-05-21T15:03:29.508Z,88.60
2019-05-21T15:05:59.267Z,145.07
2019-05-21T15:08:29.678Z,75.83
2019-05-21T15:11:01.354Z,66.47
2019-05-21T15:13:31.646Z,67.72
2019-05-21T15:16:01.981Z,60.95
2019-05-21T15:18:32.434Z,69.42
2019-05-21T15:21:10.954Z,215.50
2019-05-21T15:23:42.032Z,66.65
2019-05-21T15:26:13.411Z,76.85
2019-05-21T15:28:44.822Z,140.43
2019-05-21T15:31:15.249Z,305.50
2019-05-21T15:33:45.979Z,268.40
2019-05-21T15:36:16.460Z,220.70
2019-05-21T15:38:50.502Z,276.47
2019-05-21T15:41:18.988Z,478.67
2019-05-21T15:43:49.336Z,311.53
2019-05-21T15:46:20.130Z,246.60
2019-05-21T15:48:50.810Z,183.50
2019-05-21T15:51:21.296Z,319.03
2019-05-21T15:53:51.939Z,250.97
2019-05-21T15:56:22.828Z,236.60
2019-05-21T15:58:54.094Z,240.43
2019-05-21T16:01:24.844Z,241.73
2019-05-21T16:03:55.767Z,262.77
2019-05-21T16:06:26.160Z,358.27
2019-05-21T16:08:57.844Z,264.33
2019-05-21T16:11:29.366Z,229.47
2019-05-21T16:13:59.802Z,279.37
2019-05-21T16:16:30.111Z,224.43
2019-05-21T16:19:00.558Z,229.87
2019-05-21T16:21:30.867Z,211.60
2019-05-21T16:24:01.432Z,218.00
2019-05-21T16:26:32.076Z,237.47
2019-05-21T16:29:02.608Z,278.57
2019-05-21T16:31:32.940Z,267.00
2019-05-21T16:34:03.739Z,260.00
2019-05-21T16:36:34.506Z,323.53
2019-05-21T16:39:07.366Z,337.63
2019-05-21T16:41:44.640Z,302.83
2019-05-21T16:44:10.170Z,327.47
2019-05-21T16:46:42.535Z,342.63
2019-05-21T16:49:12.772Z,345.03
2019-05-21T16:51:43.654Z,335.80
2019-05-21T16:54:14.742Z,307.33
2019-05-21T16:56:45.409Z,329.13
2019-05-21T16:59:15.832Z,293.87
2019-05-21T17:01:46.384Z,309.43
2019-05-21T17:04:16.953Z,323.33
2019-05-21T17:06:47.271Z,325.67
2019-05-21T17:09:17.775Z,335.60
2019-05-21T17:11:59.591Z,343.83
2019-05-21T17:14:20.546Z,346.53
2019-05-21T17:16:50.985Z,327.57
2019-05-21T17:19:21.320Z,342.80
2019-05-21T17:21:52.037Z,346.87
2019-05-21T17:24:22.699Z,320.27
2019-05-21T17:26:53.091Z,348.00
2019-05-21T17:29:23.883Z,348.20
2019-05-21T17:31:54.672Z,345.63
2019-05-21T17:34:25.293Z,284.67
2019-05-21T17:36:55.608Z,362.07
2019-05-21T17:39:26.502Z,299.10
2019-05-21T17:41:56.789Z,333.77
2019-05-21T17:44:27.252Z,327.60
2019-05-21T17:46:58.052Z,303.37
2019-05-21T17:49:28.591Z,274.67
2019-05-21T17:51:59.429Z,229.93
2019-05-21T17:54:29.925Z,181.53
2019-05-21T17:57:00.275Z,187.97
2019-05-21T17:59:32.208Z,322.33
2019-05-21T18:02:04.439Z,430.87
2019-05-21T18:04:34.768Z,336.57
2019-05-21T18:07:07.900Z,323.00
2019-05-21T18:09:38.611Z,271.80
2019-05-21T18:12:10.954Z,234.00
2019-05-21T18:14:42.196Z,238.77
2019-05-21T18:17:16.190Z,282.07
2019-05-21T18:19:49.239Z,576.53
2019-05-21T18:22:22.104Z,664.40
2019-05-21T18:24:53.379Z,768.43
2019-05-21T18:27:24.230Z,645.33
2019-05-21T18:29:56.726Z,210.30
2019-05-21T18:32:27.698Z,135.47
2019-05-21T18:34:58.094Z,280.63
2019-05-21T18:37:28.771Z,207.23
2019-05-21T18:39:59.687Z,41.07
2019-05-21T18:42:30.274Z,46.70
2019-05-21T18:45:00.675Z,72.87
2019-05-21T18:47:31.369Z,24.63
2019-05-21T18:50:01.853Z,132.47
2019-05-21T18:52:32.791Z,155.40
2019-05-21T18:55:03.132Z,146.77
2019-05-21T18:57:33.582Z,192.50
2019-05-21T19:00:04.271Z,226.03
2019-05-21T19:02:34.843Z,355.30
2019-05-21T19:05:05.818Z,370.57
2019-05-21T19:07:37.088Z,413.47
2019-05-21T19:10:07.837Z,486.50
2019-05-21T19:12:40.064Z,496.53
2019-05-21T19:15:11.678Z,564.97
2019-05-21T19:17:42.080Z,598.17
2019-05-21T19:20:13.784Z,636.27
2019-05-21T19:22:44.678Z,683.23
2019-05-21T19:25:16.414Z,763.03
2019-05-21T19:27:47.182Z,711.13
2019-05-21T19:30:17.778Z,727.73
2019-05-21T19:32:48.345Z,638.90
2019-05-21T19:35:19.094Z,703.70
2019-05-21T19:37:49.629Z,785.43
2019-05-21T19:40:20.163Z,797.47
2019-05-21T19:42:54.957Z,806.00
2019-05-21T19:45:22.848Z,799.77
2019-05-21T19:47:53.226Z,726.87
2019-05-21T19:50:24.966Z,462.33
2019-05-21T19:52:55.575Z,405.67
2019-05-21T19:55:27.482Z,357.90
2019-05-21T19:57:58.084Z,348.20
2019-05-21T20:00:30.799Z,350.03
2019-05-21T20:03:01.733Z,400.63
2019-05-21T20:05:33.286Z,185.37
2019-05-21T20:08:04.256Z,200.57
2019-05-21T20:10:35.033Z,171.47
2019-05-21T20:13:05.705Z,254.67
2019-05-21T20:15:36.318Z,199.37
2019-05-21T20:18:07.828Z,130.03
2019-05-21T20:20:39.052Z,173.20
2019-05-21T20:23:10.695Z,316.73
2019-05-21T20:25:55.514Z,379.23
2019-05-21T20:28:14.743Z,343.57
2019-05-21T20:30:45.446Z,261.20
2019-05-21T20:33:17.192Z,246.17
2019-05-21T20:35:48.615Z,259.63
2019-05-21T20:38:19.685Z,397.83
2019-05-21T20:40:50.026Z,433.97
2019-05-21T20:43:21.173Z,399.83
2019-05-21T20:45:51.861Z,467.70
2019-05-21T20:48:26.350Z,407.70
2019-05-21T20:50:56.958Z,514.20
2019-05-21T20:53:27.750Z,633.07
2019-05-21T20:55:58.097Z,655.47
2019-05-21T20:58:28.996Z,656.97
2019-05-21T21:01:02.377Z,651.03
2019-05-21T21:03:33.709Z,481.60
2019-05-21T21:06:05.063Z,485.13
2019-05-21T21:08:36.624Z,377.33
2019-05-21T21:11:09.117Z,328.20
2019-05-21T21:13:40.587Z,309.83
2019-05-21T21:16:11.437Z,273.70
2019-05-21T21:18:41.916Z,460.37
2019-05-21T21:21:12.871Z,195.10
2019-05-21T21:23:43.522Z,160.10
2019-05-21T21:26:15.004Z,248.03
2019-05-21T21:28:47.096Z,217.63
2019-05-21T21:31:17.420Z,284.57
2019-05-21T21:33:48.438Z,353.07
2019-05-21T21:36:18.875Z,287.37
2019-05-21T21:38:49.493Z,148.97
2019-05-21T21:41:21.358Z,204.93
2019-05-21T21:43:51.598Z,178.70
2019-05-21T21:46:21.925Z,150.60
2019-05-21T21:48:52.475Z,139.40
2019-05-21T21:51:23.193Z,134.73
2019-05-21T21:53:54.163Z,131.33
2019-05-21T21:56:24.974Z,149.70
2019-05-21T21:58:55.437Z,143.33
2019-05-21T22:01:43.479Z,170.17
2019-05-21T22:04:18.375Z,327.60
2019-05-21T22:06:50.988Z,540.97
2019-05-21T22:09:34.850Z,394.03
2019-05-21T22:12:06.490Z,512.53
2019-05-21T22:14:49.599Z,504.23
2019-05-21T22:17:11.911Z,384.43
2019-05-21T22:19:42.275Z,413.70
2019-05-21T22:22:13.421Z,589.83
2019-05-21T22:24:43.745Z,821.53
2019-05-21T22:27:14.066Z,889.27
2019-05-21T22:29:45.633Z,970.97
2019-05-21T22:32:16.978Z,1003.53
2019-05-21T22:34:47.285Z,976.53
2019-05-21T22:37:22.333Z,1003.03
2019-05-21T22:39:53.432Z,947.37
2019-05-21T22:42:24.948Z,946.40
2019-05-21T22:45:07.533Z,932.37
2019-05-21T22:47:27.834Z,864.20
2019-05-21T22:49:58.129Z,960.00
2019-05-21T22:52:28.720Z,907.03
2019-05-21T22:54:59.375Z,825.93
2019-05-21T22:57:29.722Z,831.33
2019-05-21T23:00:00.066Z,665.07
2019-05-21T23:02:33.722Z,657.67
2019-05-21T23:05:04.237Z,666.93
2019-05-21T23:07:34.813Z,704.83
2019-05-21T23:10:06.323Z,693.13
2019-05-21T23:12:37.070Z,640.67
2019-05-21T23:15:23.716Z,674.53
2019-05-21T23:17:42.980Z,675.07
2019-05-21T23:20:33.978Z,865.10
2019-05-21T23:23:06.103Z,860.30
2019-05-21T23:25:38.687Z,836.20
2019-05-21T23:28:10.118Z,849.23
2019-05-21T23:30:40.919Z,905.40
2019-05-21T23:33:13.148Z,910.13
2019-05-21T23:35:43.811Z,889.50
2019-05-21T23:38:16.640Z,896.30
2019-05-21T23:40:48.630Z,873.60
2019-05-21T23:43:19.530Z,895.63
2019-05-21T23:45:49.825Z,913.60
2019-05-21T23:48:20.942Z,913.77
2019-05-21T23:50:51.707Z,867.53
2019-05-21T23:53:22.448Z,783.73
2019-05-21T23:55:52.761Z,800.37
2019-05-21T23:58:23.943Z,852.10
